Terminal Aerodrome Forecast
Issued by NWS

Home | Current Version | Previous Version | Graphics & Text | Print | Product List | Glossary On
Versions: 1 2 3 4 5 6 7 8 9 10 11 12 13 14 15 16
000
FTUS43 KFGF 222300
TAFBJI
TAF
KBJI 222334Z 2300/2324 23014G22KT P6SM OVC080
      TEMPO 2307/2311 -FZRARA OVC050
     FM231100 29011KT P6SM BKN015=

USA.gov is the U.S. government's official web portal to all federal, state and local government web resources and services.